createdAt,value
2022-08-27T00:00:26.179Z,5.10
2022-08-27T00:01:27.800Z,5.07
2022-08-27T00:02:29.437Z,5.17
2022-08-27T00:03:31.125Z,5.20
2022-08-27T00:04:32.892Z,5.40
2022-08-27T00:05:37.137Z,4.97
2022-08-27T00:06:38.952Z,5.33
2022-08-27T00:07:41.504Z,5.50
2022-08-27T00:08:45.638Z,6.50
2022-08-27T00:09:47.590Z,5.93
2022-08-27T00:10:49.452Z,5.50
2022-08-27T00:11:51.122Z,6.90
2022-08-27T00:12:55.401Z,7.00
2022-08-27T00:13:57.171Z,6.80
2022-08-27T00:15:00.404Z,8.67
2022-08-27T00:16:03.192Z,7.10
2022-08-27T00:17:06.608Z,7.90
2022-08-27T00:18:08.372Z,7.80
2022-08-27T00:19:10.920Z,7.83
2022-08-27T00:20:15.527Z,8.00
2022-08-27T00:21:17.904Z,8.00
2022-08-27T00:22:19.617Z,8.57
2022-08-27T00:23:21.249Z,8.50
2022-08-27T00:24:23.632Z,9.03
2022-08-27T00:25:26.135Z,9.03
2022-08-27T00:26:28.189Z,9.30
2022-08-27T00:27:29.823Z,9.20
2022-08-27T00:28:32.123Z,10.03
2022-08-27T00:29:33.740Z,9.27
2022-08-27T00:30:35.349Z,8.73
2022-08-27T00:31:37.589Z,9.13
2022-08-27T00:32:40.489Z,9.20
2022-08-27T00:33:43.457Z,9.80
2022-08-27T00:34:45.360Z,8.87
2022-08-27T00:35:47.063Z,9.20
2022-08-27T00:36:48.813Z,10.57
2022-08-27T00:37:50.780Z,10.83
2022-08-27T00:38:54.114Z,10.40
2022-08-27T00:39:56.011Z,9.97
2022-08-27T00:40:58.108Z,11.03
2022-08-27T00:42:01.074Z,12.33
2022-08-27T00:43:03.245Z,12.20
2022-08-27T00:44:06.278Z,12.37
2022-08-27T00:45:08.997Z,12.90
2022-08-27T00:46:38.666Z,13.33
2022-08-27T00:47:45.199Z,13.27
2022-08-27T00:48:48.701Z,14.50
2022-08-27T00:49:57.204Z,14.10
2022-08-27T00:50:58.844Z,14.30
2022-08-27T00:52:05.815Z,14.77
2022-08-27T00:53:22.645Z,14.03
2022-08-27T00:54:26.337Z,14.60
2022-08-27T00:55:35.859Z,14.23
2022-08-27T00:56:45.544Z,14.20
2022-08-27T00:58:16.419Z,13.87
2022-08-27T00:59:21.033Z,13.90
2022-08-27T01:00:23.207Z,15.17
2022-08-27T01:01:29.888Z,14.30
2022-08-27T01:02:31.796Z,14.67
2022-08-27T01:03:34.447Z,13.23
2022-08-27T01:04:38.739Z,14.27
2022-08-27T01:05:43.028Z,14.40
2022-08-27T01:06:44.616Z,13.93
2022-08-27T01:07:50.326Z,14.37
2022-08-27T01:09:04.957Z,14.13
2022-08-27T01:10:10.220Z,13.63
2022-08-27T01:11:12.172Z,14.90
2022-08-27T01:12:15.142Z,14.93
2022-08-27T01:13:20.622Z,13.70
2022-08-27T01:14:44.513Z,14.07
2022-08-27T01:15:47.446Z,14.40
2022-08-27T01:16:56.069Z,12.93
2022-08-27T01:17:58.186Z,12.73
2022-08-27T01:19:00.866Z,13.57
2022-08-27T01:20:09.187Z,15.20
2022-08-27T01:21:24.516Z,14.57
2022-08-27T01:22:26.126Z,14.00
2022-08-27T01:24:04.935Z,14.60
2022-08-27T01:25:12.764Z,14.20
2022-08-27T01:26:15.858Z,13.60
2022-08-27T01:27:21.960Z,13.60
2022-08-27T01:28:29.231Z,15.00
2022-08-27T01:29:38.387Z,14.53
2022-08-27T01:30:41.184Z,14.50
2022-08-27T01:31:42.943Z,14.23
2022-08-27T01:32:45.903Z,16.03
2022-08-27T01:33:59.530Z,14.40
2022-08-27T01:35:03.808Z,14.80
2022-08-27T01:36:06.995Z,15.50
2022-08-27T01:37:10.417Z,15.87
2022-08-27T01:38:30.302Z,14.60
2022-08-27T01:39:35.096Z,15.97
2022-08-27T01:40:37.589Z,14.20
2022-08-27T01:41:39.323Z,14.00
2022-08-27T01:42:44.275Z,15.30
2022-08-27T01:43:45.944Z,15.83
2022-08-27T01:44:56.450Z,14.63
2022-08-27T01:45:58.610Z,16.70
2022-08-27T01:47:00.260Z,15.47
2022-08-27T01:48:03.176Z,16.87
2022-08-27T01:49:04.896Z,17.40
2022-08-27T01:50:13.681Z,17.00
2022-08-27T01:51:15.422Z,17.40
2022-08-27T01:52:20.186Z,17.83
2022-08-27T01:53:24.703Z,18.00
2022-08-27T01:54:26.340Z,17.37
2022-08-27T01:55:29.640Z,17.23
2022-08-27T01:56:31.271Z,16.70
2022-08-27T01:57:33.574Z,18.70
2022-08-27T01:58:35.855Z,19.03
2022-08-27T01:59:39.687Z,17.60
2022-08-27T02:00:46.410Z,18.57
2022-08-27T02:01:48.326Z,19.00
2022-08-27T02:02:50.121Z,18.47
2022-08-27T02:03:51.740Z,18.63
2022-08-27T02:04:53.559Z,18.40
2022-08-27T02:05:55.221Z,17.47
2022-08-27T02:06:58.153Z,18.77
2022-08-27T02:08:00.110Z,20.10
2022-08-27T02:09:01.711Z,19.50
2022-08-27T02:10:05.532Z,19.10
2022-08-27T02:11:08.220Z,19.00
2022-08-27T02:12:09.883Z,18.93
2022-08-27T02:13:13.270Z,18.63
2022-08-27T02:14:15.411Z,17.57
2022-08-27T02:15:17.683Z,17.70
2022-08-27T02:16:19.394Z,19.20
2022-08-27T02:17:21.055Z,18.77
2022-08-27T02:18:23.118Z,19.10
2022-08-27T02:19:24.807Z,17.40
2022-08-27T02:20:29.434Z,17.80
2022-08-27T02:21:31.674Z,17.87
2022-08-27T02:22:33.339Z,18.47
2022-08-27T02:23:34.959Z,18.93
2022-08-27T02:24:36.607Z,18.00
2022-08-27T02:25:38.733Z,18.47
2022-08-27T02:26:40.424Z,19.57
2022-08-27T02:27:43.110Z,19.27
2022-08-27T02:28:44.850Z,20.20
2022-08-27T02:29:49.715Z,17.50
2022-08-27T02:30:51.634Z,19.57
2022-08-27T02:31:54.409Z,19.57
2022-08-27T02:32:55.990Z,18.80
2022-08-27T02:33:57.967Z,17.80
2022-08-27T02:35:00.203Z,19.53
2022-08-27T02:36:02.284Z,17.63
2022-08-27T02:37:04.235Z,18.30
2022-08-27T02:38:07.738Z,18.30
2022-08-27T02:39:10.458Z,18.67
2022-08-27T02:40:16.183Z,18.40
2022-08-27T02:41:18.414Z,18.40
2022-08-27T02:42:20.057Z,19.50
2022-08-27T02:43:25.536Z,18.87
2022-08-27T02:44:28.047Z,20.07
2022-08-27T02:45:31.660Z,19.50
2022-08-27T02:46:33.381Z,17.33
2022-08-27T02:47:35.735Z,20.73
2022-08-27T02:48:38.679Z,18.93
2022-08-27T02:49:40.641Z,18.63
2022-08-27T02:50:43.794Z,19.17
2022-08-27T02:51:45.530Z,19.17
2022-08-27T02:52:47.990Z,20.20
2022-08-27T02:53:50.282Z,18.63
2022-08-27T02:54:55.142Z,19.73
2022-08-27T02:55:57.722Z,19.40
2022-08-27T02:56:59.444Z,19.47
2022-08-27T02:58:01.351Z,19.37
2022-08-27T02:59:03.412Z,18.60
2022-08-27T03:00:11.375Z,18.60
2022-08-27T03:01:13.804Z,19.63
2022-08-27T03:02:15.998Z,18.43
2022-08-27T03:03:18.390Z,19.30
2022-08-27T03:04:20.790Z,19.77
2022-08-27T03:05:22.804Z,19.30
2022-08-27T03:06:24.433Z,19.97
2022-08-27T03:07:26.161Z,19.13
2022-08-27T03:08:28.582Z,17.80
2022-08-27T03:09:34.512Z,18.20
2022-08-27T03:10:36.175Z,19.60
2022-08-27T03:11:37.967Z,18.37
2022-08-27T03:12:40.653Z,19.33
2022-08-27T03:13:42.303Z,18.10
2022-08-27T03:14:44.605Z,18.00
2022-08-27T03:15:46.451Z,17.87
2022-08-27T03:16:48.063Z,19.33
2022-08-27T03:18:08.596Z,18.27
2022-08-27T03:19:11.329Z,16.37
2022-08-27T03:20:13.257Z,18.20
2022-08-27T03:21:20.855Z,18.20
2022-08-27T03:22:22.524Z,18.97
2022-08-27T03:23:27.368Z,16.27
2022-08-27T03:24:28.974Z,17.83
2022-08-27T03:25:31.153Z,18.20
2022-08-27T03:26:34.801Z,18.17
2022-08-27T03:27:36.844Z,18.70
2022-08-27T03:28:38.839Z,18.07
2022-08-27T03:29:40.442Z,18.10
2022-08-27T03:30:42.709Z,17.43
2022-08-27T03:31:44.372Z,17.10
2022-08-27T03:32:46.511Z,17.30
2022-08-27T03:33:48.227Z,18.40
2022-08-27T03:34:50.132Z,18.83
2022-08-27T03:35:52.477Z,18.50
2022-08-27T03:36:54.183Z,18.23
2022-08-27T03:37:55.796Z,18.63
2022-08-27T03:38:57.848Z,17.67
2022-08-27T03:39:59.668Z,17.60
2022-08-27T03:41:02.964Z,17.40
2022-08-27T03:42:04.976Z,17.77
2022-08-27T03:43:06.692Z,17.60
2022-08-27T03:44:08.296Z,17.80
2022-08-27T03:45:10.760Z,17.07
2022-08-27T03:46:12.411Z,17.87
2022-08-27T03:47:14.194Z,18.03
2022-08-27T03:48:16.527Z,16.03
2022-08-27T03:49:20.570Z,16.50
2022-08-27T03:50:23.097Z,17.03
2022-08-27T03:51:25.170Z,16.80
2022-08-27T03:52:28.282Z,17.13
2022-08-27T03:53:29.944Z,17.53
2022-08-27T03:54:34.192Z,18.60
2022-08-27T03:55:35.835Z,16.60
2022-08-27T03:56:39.907Z,17.63
2022-08-27T03:57:41.619Z,16.70
2022-08-27T03:58:43.255Z,16.30
2022-08-27T03:59:44.976Z,16.90
2022-08-27T04:00:46.682Z,16.63
2022-08-27T04:01:51.116Z,17.73
2022-08-27T04:02:54.829Z,16.10
2022-08-27T04:03:56.444Z,16.33
2022-08-27T04:04:58.159Z,16.17
2022-08-27T04:06:00.060Z,16.67
2022-08-27T04:07:01.813Z,15.57
2022-08-27T04:08:03.621Z,16.67
2022-08-27T04:09:05.459Z,18.07
2022-08-27T04:10:09.506Z,16.80
2022-08-27T04:11:11.707Z,16.77
2022-08-27T04:12:13.327Z,16.43
2022-08-27T04:13:16.028Z,18.10
2022-08-27T04:14:27.053Z,16.90
2022-08-27T04:15:29.892Z,17.00
2022-08-27T04:16:33.700Z,16.40
2022-08-27T04:17:35.422Z,16.33
2022-08-27T04:18:37.063Z,16.83
2022-08-27T04:19:38.794Z,15.10
2022-08-27T04:20:40.505Z,15.70
2022-08-27T04:21:42.242Z,17.23
2022-08-27T04:22:43.882Z,15.97
2022-08-27T04:23:45.544Z,16.60
2022-08-27T04:24:47.495Z,17.50
2022-08-27T04:25:49.566Z,17.33
2022-08-27T04:26:51.479Z,18.00
2022-08-27T04:27:53.860Z,17.87
2022-08-27T04:28:57.520Z,15.90
2022-08-27T04:30:00.934Z,16.00
2022-08-27T04:31:04.040Z,17.00
2022-08-27T04:32:05.801Z,16.90
2022-08-27T04:33:07.460Z,16.90
2022-08-27T04:34:09.170Z,16.60
2022-08-27T04:35:11.705Z,16.63
2022-08-27T04:36:14.292Z,15.40
2022-08-27T04:37:16.531Z,15.67
2022-08-27T04:38:25.059Z,16.37
2022-08-27T04:39:28.275Z,16.47
2022-08-27T04:40:49.957Z,15.20
2022-08-27T04:41:54.150Z,17.43
2022-08-27T04:42:55.855Z,16.70
2022-08-27T04:43:59.178Z,17.27
2022-08-27T04:45:00.932Z,17.03
2022-08-27T04:46:02.576Z,16.90
2022-08-27T04:47:05.809Z,16.00
2022-08-27T04:48:07.457Z,16.33
2022-08-27T04:49:12.189Z,16.10
2022-08-27T04:50:15.334Z,15.50
2022-08-27T04:51:18.855Z,15.73
2022-08-27T04:52:21.442Z,15.10
2022-08-27T04:53:23.354Z,15.97
2022-08-27T04:54:32.716Z,15.40
2022-08-27T04:55:40.515Z,14.87
2022-08-27T04:56:42.443Z,12.83
2022-08-27T04:57:44.139Z,13.60
2022-08-27T04:58:45.756Z,13.30
2022-08-27T04:59:47.697Z,12.83
2022-08-27T05:00:52.724Z,11.70
2022-08-27T05:01:54.446Z,11.87
2022-08-27T05:02:56.459Z,11.40
2022-08-27T05:03:58.661Z,11.17
2022-08-27T05:05:00.366Z,11.50
2022-08-27T05:06:05.004Z,10.90
2022-08-27T05:07:08.935Z,11.43
2022-08-27T05:08:13.299Z,10.87
2022-08-27T05:09:16.594Z,11.03
2022-08-27T05:10:19.905Z,10.43
2022-08-27T05:11:23.755Z,10.07
2022-08-27T05:12:25.474Z,11.00
2022-08-27T05:13:28.100Z,10.87
2022-08-27T05:14:30.454Z,10.93
2022-08-27T05:15:32.259Z,11.93
2022-08-27T05:16:36.341Z,11.10
2022-08-27T05:17:37.987Z,10.33
2022-08-27T05:18:48.409Z,10.37
2022-08-27T05:19:50.414Z,10.73
2022-08-27T05:20:52.032Z,11.13
2022-08-27T05:21:54.015Z,10.47
2022-08-27T05:22:56.260Z,10.40
2022-08-27T05:24:00.296Z,10.00
2022-08-27T05:25:01.905Z,9.97
2022-08-27T05:26:03.530Z,9.53
2022-08-27T05:27:05.347Z,9.03
2022-08-27T05:28:07.150Z,9.70
2022-08-27T05:29:08.952Z,9.03
2022-08-27T05:30:12.056Z,8.47
2022-08-27T05:31:15.225Z,9.73
2022-08-27T05:32:16.865Z,9.10
2022-08-27T05:33:25.436Z,8.90
2022-08-27T05:34:27.078Z,8.30
2022-08-27T05:35:29.383Z,9.10
2022-08-27T05:36:34.077Z,8.30
2022-08-27T05:37:36.196Z,8.20
2022-08-27T05:38:37.801Z,8.30
2022-08-27T05:39:39.471Z,8.73
2022-08-27T05:40:43.740Z,8.10
2022-08-27T05:41:45.380Z,7.43
2022-08-27T05:42:50.310Z,8.17
2022-08-27T05:43:53.942Z,7.80
2022-08-27T05:44:56.507Z,7.30
2022-08-27T05:45:58.169Z,7.60
2022-08-27T05:46:59.801Z,7.77
2022-08-27T05:48:01.451Z,8.43
2022-08-27T05:49:03.189Z,7.90
2022-08-27T05:50:05.763Z,7.57
2022-08-27T05:51:26.159Z,7.73
2022-08-27T05:52:27.951Z,8.57
2022-08-27T05:53:29.539Z,8.50
2022-08-27T05:54:31.166Z,8.00
2022-08-27T05:55:39.470Z,9.00
2022-08-27T05:56:42.395Z,8.00
2022-08-27T05:57:44.129Z,8.00
2022-08-27T05:59:05.371Z,8.90
2022-08-27T06:00:26.587Z,7.70
2022-08-27T06:01:29.790Z,8.07
2022-08-27T06:02:31.508Z,8.03
2022-08-27T06:03:34.401Z,8.73
2022-08-27T06:04:36.673Z,8.60
2022-08-27T06:05:38.430Z,8.60
2022-08-27T06:06:42.605Z,8.97
2022-08-27T06:07:44.296Z,8.47
2022-08-27T06:08:45.919Z,8.60
2022-08-27T06:09:47.593Z,9.83
2022-08-27T06:10:49.222Z,9.50
2022-08-27T06:11:53.306Z,9.90
2022-08-27T06:12:57.033Z,9.97
2022-08-27T06:13:58.937Z,9.70
2022-08-27T06:15:04.201Z,9.50
2022-08-27T06:16:08.431Z,9.23
2022-08-27T06:17:10.111Z,10.23
2022-08-27T06:18:13.518Z,9.13
2022-08-27T06:19:15.373Z,10.03
2022-08-27T06:20:17.123Z,10.60
2022-08-27T06:21:24.285Z,9.53
2022-08-27T06:22:26.462Z,10.20
2022-08-27T06:23:28.862Z,10.63
2022-08-27T06:24:30.508Z,10.77
2022-08-27T06:25:35.554Z,11.20
2022-08-27T06:26:37.239Z,10.20
2022-08-27T06:27:38.890Z,10.70
2022-08-27T06:28:41.335Z,9.70
2022-08-27T06:29:44.034Z,10.20
2022-08-27T06:30:45.739Z,9.33
2022-08-27T06:31:48.512Z,9.03
2022-08-27T06:32:51.692Z,8.87
2022-08-27T06:33:57.854Z,7.67
2022-08-27T06:35:02.395Z,8.27
2022-08-27T06:36:06.523Z,8.40
2022-08-27T06:37:08.317Z,9.10
2022-08-27T06:38:10.075Z,8.20
2022-08-27T06:39:13.775Z,9.00
2022-08-27T06:40:15.942Z,8.80
2022-08-27T06:41:23.656Z,9.70
2022-08-27T06:42:26.034Z,9.30
2022-08-27T06:43:27.663Z,9.67
2022-08-27T06:44:29.309Z,9.77
2022-08-27T06:45:30.903Z,9.40
2022-08-27T06:46:32.576Z,9.60
2022-08-27T06:47:34.303Z,10.00
2022-08-27T06:48:36.222Z,8.97
2022-08-27T06:49:40.099Z,9.20
2022-08-27T06:50:43.508Z,8.77
2022-08-27T06:51:47.263Z,8.40
2022-08-27T06:52:48.861Z,8.70
2022-08-27T06:53:52.554Z,8.57
2022-08-27T06:54:54.196Z,9.13
2022-08-27T06:55:55.795Z,9.27
2022-08-27T06:56:59.009Z,8.03
2022-08-27T06:58:00.698Z,9.30
2022-08-27T06:59:11.814Z,7.93
2022-08-27T07:00:14.101Z,8.53
2022-08-27T07:01:21.093Z,9.00
2022-08-27T07:02:22.865Z,7.83
2022-08-27T07:03:24.516Z,8.23
2022-08-27T07:04:32.798Z,8.83
2022-08-27T07:05:36.544Z,8.87
2022-08-27T07:06:39.144Z,9.93
2022-08-27T07:07:46.678Z,9.43
2022-08-27T07:08:53.287Z,9.23
2022-08-27T07:09:55.364Z,9.27
2022-08-27T07:10:57.556Z,8.97
2022-08-27T07:11:59.560Z,9.63
2022-08-27T07:13:01.382Z,9.90
2022-08-27T07:14:03.089Z,9.63
2022-08-27T07:15:05.147Z,8.80
2022-08-27T07:16:12.739Z,9.57
2022-08-27T07:17:17.005Z,8.90
2022-08-27T07:18:18.637Z,9.17
2022-08-27T07:19:30.251Z,8.73
2022-08-27T07:20:33.014Z,10.07
2022-08-27T07:21:35.611Z,9.23
2022-08-27T07:22:40.571Z,9.67
2022-08-27T07:23:42.397Z,9.13
2022-08-27T07:24:44.113Z,9.90
2022-08-27T07:25:45.830Z,9.03
2022-08-27T07:26:47.669Z,9.43
2022-08-27T07:27:49.857Z,9.90
2022-08-27T07:28:53.403Z,8.87
2022-08-27T07:29:55.022Z,9.83
2022-08-27T07:30:56.710Z,9.90
2022-08-27T07:31:58.434Z,8.97
2022-08-27T07:33:00.027Z,9.37
2022-08-27T07:34:03.752Z,9.30
2022-08-27T07:35:09.385Z,10.33
2022-08-27T07:36:11.383Z,9.07
2022-08-27T07:37:13.716Z,9.90
2022-08-27T07:38:15.428Z,8.90
2022-08-27T07:39:17.379Z,8.63
2022-08-27T07:40:19.092Z,8.20
2022-08-27T07:41:20.979Z,8.30
2022-08-27T07:42:41.355Z,9.20
2022-08-27T07:44:01.703Z,8.27
2022-08-27T07:45:03.567Z,9.70
2022-08-27T07:46:05.727Z,8.20
2022-08-27T07:47:08.072Z,8.20
2022-08-27T07:48:10.282Z,8.13
2022-08-27T07:49:12.516Z,8.50
2022-08-27T07:50:15.126Z,8.40
2022-08-27T07:51:20.551Z,9.20
2022-08-27T07:52:26.296Z,8.93
2022-08-27T07:53:28.255Z,7.80
2022-08-27T07:54:29.948Z,7.07
2022-08-27T07:55:31.551Z,6.90
2022-08-27T07:56:33.663Z,7.50
2022-08-27T07:57:35.282Z,5.40
2022-08-27T07:58:36.907Z,6.83
2022-08-27T07:59:38.565Z,6.87
2022-08-27T08:00:44.904Z,6.63
2022-08-27T08:01:48.931Z,6.60
2022-08-27T08:02:51.003Z,6.87
2022-08-27T08:03:52.732Z,6.67
2022-08-27T08:04:54.335Z,6.70
2022-08-27T08:05:57.242Z,7.07
2022-08-27T08:06:58.857Z,6.50
2022-08-27T08:08:00.700Z,7.40
2022-08-27T08:09:02.352Z,6.90
2022-08-27T08:10:08.557Z,7.40
2022-08-27T08:11:13.212Z,7.37
2022-08-27T08:12:15.057Z,7.60
2022-08-27T08:13:18.104Z,8.73
2022-08-27T08:14:20.654Z,7.63
2022-08-27T08:15:22.260Z,7.37
2022-08-27T08:16:29.644Z,8.10
2022-08-27T08:17:34.362Z,8.07
2022-08-27T08:18:36.660Z,7.63
2022-08-27T08:19:38.823Z,7.50
2022-08-27T08:20:57.545Z,7.60
2022-08-27T08:22:05.317Z,7.90
2022-08-27T08:23:09.825Z,7.40
2022-08-27T08:24:12.306Z,8.10
2022-08-27T08:25:14.450Z,7.30
2022-08-27T08:26:16.323Z,8.53
2022-08-27T08:27:18.106Z,8.20
2022-08-27T08:28:19.706Z,7.90
2022-08-27T08:29:21.669Z,7.50
2022-08-27T08:30:23.814Z,7.97
2022-08-27T08:31:25.424Z,8.50
2022-08-27T08:32:27.124Z,7.63
2022-08-27T08:33:31.351Z,8.23
2022-08-27T08:34:33.716Z,7.90
2022-08-27T08:35:40.474Z,7.40
2022-08-27T08:36:42.835Z,7.77
2022-08-27T08:37:47.909Z,8.27
2022-08-27T08:38:50.863Z,7.90
2022-08-27T08:39:52.828Z,7.63
2022-08-27T08:40:55.323Z,6.73
2022-08-27T08:42:00.309Z,7.80
2022-08-27T08:43:03.363Z,7.00
2022-08-27T08:44:14.783Z,7.40
2022-08-27T08:45:24.597Z,7.60
2022-08-27T08:47:01.683Z,7.30
2022-08-27T08:48:18.379Z,7.53
2022-08-27T08:49:25.683Z,8.37
2022-08-27T08:50:34.851Z,8.40
2022-08-27T08:51:42.091Z,8.20
2022-08-27T08:53:06.875Z,9.00
2022-08-27T08:54:16.089Z,8.30
2022-08-27T08:55:23.445Z,8.43
2022-08-27T08:56:39.077Z,9.37
2022-08-27T08:57:51.823Z,8.83
2022-08-27T08:59:03.151Z,9.53
2022-08-27T09:00:12.440Z,8.10
2022-08-27T09:01:18.410Z,9.30
2022-08-27T09:02:20.160Z,9.13
2022-08-27T09:03:22.860Z,8.70
2022-08-27T09:04:27.013Z,8.23
2022-08-27T09:05:28.739Z,8.80
2022-08-27T09:06:50.775Z,8.17
2022-08-27T09:08:36.494Z,8.77
2022-08-27T09:09:49.960Z,8.80
2022-08-27T09:11:03.662Z,9.07
2022-08-27T09:12:14.817Z,8.37
2022-08-27T09:13:35.075Z,6.90
2022-08-27T09:14:46.273Z,7.70
2022-08-27T09:15:49.095Z,9.00
2022-08-27T09:16:50.816Z,8.20
2022-08-27T09:18:14.254Z,9.70
2022-08-27T09:19:16.513Z,8.17
2022-08-27T09:20:25.944Z,7.70
2022-08-27T09:21:41.112Z,7.63
2022-08-27T09:22:48.781Z,7.10
2022-08-27T09:24:26.857Z,6.70
2022-08-27T09:25:33.378Z,6.37
2022-08-27T09:26:39.074Z,6.90
2022-08-27T09:27:43.095Z,6.57
2022-08-27T09:29:03.434Z,6.47
2022-08-27T09:30:18.667Z,6.50
2022-08-27T09:31:21.550Z,6.13
2022-08-27T09:32:31.362Z,5.70
2022-08-27T09:33:44.461Z,6.37
2022-08-27T09:34:59.607Z,7.03
2022-08-27T09:36:04.087Z,6.60
2022-08-27T09:37:11.100Z,6.80
2022-08-27T09:38:31.115Z,7.03
2022-08-27T09:39:53.043Z,6.07
2022-08-27T09:40:58.878Z,7.70
2022-08-27T09:42:03.053Z,6.93
2022-08-27T09:43:20.750Z,7.20
2022-08-27T09:44:23.009Z,6.73
2022-08-27T09:45:29.903Z,7.30
2022-08-27T09:46:31.632Z,7.50
2022-08-27T09:47:42.949Z,6.83
2022-08-27T09:48:44.585Z,6.67
2022-08-27T09:49:47.490Z,7.63
2022-08-27T09:50:55.897Z,7.30
2022-08-27T09:51:57.936Z,8.00
2022-08-27T09:53:01.167Z,7.50
2022-08-27T09:54:04.645Z,7.00
2022-08-27T09:55:07.423Z,6.70
2022-08-27T09:56:21.254Z,7.83
2022-08-27T09:57:38.562Z,7.27
2022-08-27T09:58:43.995Z,6.67
2022-08-27T09:59:54.346Z,7.37
2022-08-27T10:01:03.004Z,7.77
2022-08-27T10:02:16.273Z,7.63
2022-08-27T10:03:23.576Z,7.70
2022-08-27T10:04:53.152Z,7.07
2022-08-27T10:05:55.620Z,7.80
2022-08-27T10:06:57.983Z,7.30
2022-08-27T10:08:05.567Z,7.73
2022-08-27T10:09:34.045Z,8.00
2022-08-27T10:10:49.512Z,7.87
2022-08-27T10:12:00.778Z,7.77
2022-08-27T10:13:21.064Z,7.10
2022-08-27T10:14:39.294Z,8.60
2022-08-27T10:16:10.782Z,8.10
2022-08-27T10:17:41.056Z,7.77
2022-08-27T10:18:56.319Z,7.87
2022-08-27T10:20:13.534Z,7.83
2022-08-27T10:21:58.699Z,7.83
2022-08-27T10:23:13.960Z,8.00
2022-08-27T10:24:26.060Z,8.70
2022-08-27T10:25:50.133Z,8.27
2022-08-27T10:27:34.265Z,8.17
2022-08-27T10:29:03.983Z,8.40
2022-08-27T10:30:13.952Z,7.83
2022-08-27T10:31:24.810Z,9.10
2022-08-27T10:33:07.382Z,7.53
2022-08-27T10:34:35.028Z,8.40
2022-08-27T10:36:06.370Z,9.33
2022-08-27T10:37:52.462Z,9.33
2022-08-27T10:39:14.686Z,8.60
2022-08-27T10:40:29.371Z,8.50
2022-08-27T10:41:43.830Z,7.97
2022-08-27T10:43:12.873Z,9.27
2022-08-27T10:45:09.304Z,9.10
2022-08-27T10:46:26.849Z,8.90
2022-08-27T10:47:46.690Z,8.33
2022-08-27T10:49:22.655Z,8.30
2022-08-27T10:50:30.968Z,8.60
2022-08-27T10:51:43.751Z,8.40
2022-08-27T10:52:55.741Z,7.30
2022-08-27T10:54:25.236Z,7.27
2022-08-27T10:55:51.869Z,7.33
2022-08-27T10:57:26.230Z,7.37
2022-08-27T10:58:34.281Z,6.73
2022-08-27T10:59:47.897Z,7.00
2022-08-27T11:00:55.880Z,7.00
2022-08-27T11:02:26.077Z,6.70
2022-08-27T11:03:37.998Z,6.67
2022-08-27T11:04:54.285Z,6.27
2022-08-27T11:05:57.278Z,6.80
2022-08-27T11:07:05.066Z,5.73
2022-08-27T11:08:14.687Z,6.27
2022-08-27T11:09:24.848Z,6.90
2022-08-27T11:10:34.257Z,6.73
2022-08-27T11:13:40.807Z,6.33
2022-08-27T11:15:02.993Z,6.60
2022-08-27T11:16:22.572Z,7.60
2022-08-27T11:17:39.730Z,6.30
2022-08-27T11:19:02.980Z,6.90
2022-08-27T11:20:11.170Z,6.30
2022-08-27T11:21:14.686Z,6.10
2022-08-27T11:22:26.517Z,6.53
2022-08-27T11:23:36.087Z,6.57
2022-08-27T11:24:49.416Z,6.60
2022-08-27T11:25:58.364Z,6.50
2022-08-27T11:27:07.236Z,5.83
2022-08-27T11:28:11.286Z,6.60
2022-08-27T11:29:39.325Z,6.07
2022-08-27T11:30:48.747Z,7.07
2022-08-27T11:32:00.609Z,6.80
2022-08-27T11:33:13.923Z,6.20
2022-08-27T11:34:36.877Z,6.40
2022-08-27T11:36:07.925Z,5.90
2022-08-27T11:37:36.078Z,6.17
2022-08-27T11:38:57.089Z,7.23
2022-08-27T11:40:04.943Z,6.87
2022-08-27T11:41:25.470Z,7.10
2022-08-27T11:42:50.143Z,6.93
2022-08-27T11:43:53.938Z,5.80
2022-08-27T11:45:03.884Z,6.33
2022-08-27T11:46:08.822Z,6.33
2022-08-27T11:47:24.496Z,6.60
2022-08-27T11:48:33.708Z,7.07
2022-08-27T11:49:57.463Z,8.00
2022-08-27T11:51:02.795Z,6.90
2022-08-27T11:52:07.731Z,7.13
2022-08-27T11:53:09.796Z,7.03
2022-08-27T11:54:50.036Z,7.00
2022-08-27T11:55:53.335Z,6.87
2022-08-27T11:56:55.370Z,6.33
2022-08-27T11:58:33.100Z,6.10
2022-08-27T11:59:35.204Z,6.17
2022-08-27T12:00:42.181Z,6.73
2022-08-27T12:01:44.244Z,6.57
2022-08-27T12:02:58.267Z,6.40
2022-08-27T12:04:06.838Z,6.23
2022-08-27T12:05:26.690Z,5.87
2022-08-27T12:06:39.557Z,5.90
2022-08-27T12:07:45.105Z,6.20
2022-08-27T12:08:47.267Z,6.13
2022-08-27T12:10:19.831Z,6.73
2022-08-27T12:12:09.201Z,6.10
2022-08-27T12:13:50.676Z,6.03
2022-08-27T12:15:04.511Z,6.27
2022-08-27T12:16:40.896Z,5.93
2022-08-27T12:18:05.241Z,6.00
2022-08-27T12:19:29.715Z,5.67
2022-08-27T12:20:46.410Z,6.23
2022-08-27T12:22:01.388Z,6.00
2022-08-27T12:23:43.995Z,6.60
2022-08-27T12:24:59.441Z,7.20
2022-08-27T12:26:27.212Z,6.37
2022-08-27T12:27:32.339Z,6.10
2022-08-27T12:28:34.300Z,6.17
2022-08-27T12:29:50.182Z,6.87
2022-08-27T12:30:56.008Z,5.70
2022-08-27T12:32:14.851Z,6.10
2022-08-27T12:33:41.496Z,6.53
2022-08-27T12:34:49.579Z,6.80
2022-08-27T12:35:54.398Z,6.73
2022-08-27T12:36:56.700Z,6.47
2022-08-27T12:38:20.428Z,6.20
2022-08-27T12:39:32.521Z,6.20
2022-08-27T12:40:54.131Z,6.80
2022-08-27T12:41:56.391Z,6.40
2022-08-27T12:43:07.473Z,6.23
2022-08-27T12:44:12.785Z,6.40
2022-08-27T12:45:23.851Z,6.37
2022-08-27T12:46:26.782Z,5.80
2022-08-27T12:47:42.874Z,6.30
2022-08-27T12:48:57.970Z,7.27
2022-08-27T12:50:01.763Z,5.90
2022-08-27T12:51:08.836Z,6.40
2022-08-27T12:52:32.602Z,6.33
2022-08-27T12:53:57.183Z,7.53
2022-08-27T12:55:23.208Z,6.17
2022-08-27T12:56:53.936Z,6.67
2022-08-27T12:58:16.099Z,7.10
2022-08-27T12:59:30.305Z,6.60
2022-08-27T13:00:47.190Z,7.37
2022-08-27T13:02:07.600Z,6.73
2022-08-27T13:03:29.206Z,6.57
2022-08-27T13:04:33.926Z,6.60
2022-08-27T13:05:44.168Z,6.90
2022-08-27T13:06:46.008Z,6.50
2022-08-27T13:07:50.109Z,7.03
2022-08-27T13:09:00.366Z,8.17
2022-08-27T13:10:20.652Z,7.27
2022-08-27T13:11:57.024Z,6.80
2022-08-27T13:13:09.513Z,7.70
2022-08-27T13:14:14.941Z,6.17
2022-08-27T13:15:19.962Z,7.13
2022-08-27T13:16:22.788Z,7.37
2022-08-27T13:17:25.917Z,6.73
2022-08-27T13:18:29.924Z,8.10
2022-08-27T13:19:43.035Z,7.73
2022-08-27T13:20:53.060Z,6.23
2022-08-27T13:21:55.651Z,7.27
2022-08-27T13:22:57.604Z,7.33
2022-08-27T13:24:02.633Z,6.83
2022-08-27T13:25:06.114Z,6.70
2022-08-27T13:26:11.340Z,6.50
2022-08-27T13:27:13.496Z,6.70
2022-08-27T13:28:17.098Z,7.33
2022-08-27T13:29:19.855Z,6.13
2022-08-27T13:30:35.167Z,7.20
2022-08-27T13:31:38.679Z,5.90
2022-08-27T13:32:41.085Z,6.80
2022-08-27T13:33:44.269Z,7.10
2022-08-27T13:34:46.420Z,6.67
2022-08-27T13:35:48.579Z,6.70
2022-08-27T13:36:54.722Z,6.20
2022-08-27T13:37:57.702Z,6.10
2022-08-27T13:39:04.160Z,6.30
2022-08-27T13:40:07.220Z,6.83
2022-08-27T13:41:30.081Z,6.60
2022-08-27T13:42:32.020Z,6.17
2022-08-27T13:43:42.592Z,6.07
2022-08-27T13:44:48.118Z,6.77
2022-08-27T13:45:58.792Z,7.70
2022-08-27T13:47:18.364Z,5.87
2022-08-27T13:48:24.262Z,6.37
2022-08-27T13:49:28.815Z,6.50
2022-08-27T13:50:32.804Z,6.60
2022-08-27T13:51:35.885Z,7.27
2022-08-27T13:53:00.779Z,5.93
2022-08-27T13:54:18.612Z,6.63
2022-08-27T13:55:20.666Z,7.13
2022-08-27T13:56:26.709Z,7.80
2022-08-27T13:57:31.425Z,7.17
2022-08-27T13:58:35.230Z,8.03
2022-08-27T13:59:43.282Z,7.10
2022-08-27T14:00:45.579Z,6.60
2022-08-27T14:02:05.547Z,7.60
2022-08-27T14:03:30.951Z,8.03
2022-08-27T14:04:40.178Z,7.83
2022-08-27T14:05:48.485Z,6.70
2022-08-27T14:06:50.859Z,7.77
2022-08-27T14:07:56.180Z,8.30
2022-08-27T14:08:59.161Z,7.80
2022-08-27T14:10:36.937Z,6.80
2022-08-27T14:11:38.997Z,8.07
2022-08-27T14:12:42.279Z,7.30
2022-08-27T14:13:49.966Z,7.90
2022-08-27T14:14:54.688Z,7.00
2022-08-27T14:15:59.576Z,6.53
2022-08-27T14:17:03.304Z,6.97
2022-08-27T14:18:32.105Z,7.10
2022-08-27T14:19:43.971Z,7.03
2022-08-27T14:20:46.027Z,7.00
2022-08-27T14:21:47.972Z,6.67
2022-08-27T14:22:50.236Z,6.40
2022-08-27T14:23:52.703Z,6.57
2022-08-27T14:24:54.649Z,6.53
2022-08-27T14:26:01.728Z,6.30
2022-08-27T14:27:13.514Z,6.03
2022-08-27T14:28:15.440Z,6.00
2022-08-27T14:29:17.920Z,6.13
2022-08-27T14:30:25.174Z,6.17
2022-08-27T14:31:32.443Z,6.50
2022-08-27T14:32:34.528Z,5.40
2022-08-27T14:33:36.490Z,5.00
2022-08-27T14:34:38.627Z,5.70
2022-08-27T14:35:44.388Z,5.77
2022-08-27T14:36:46.447Z,5.17
2022-08-27T14:37:48.379Z,5.20
2022-08-27T14:38:51.984Z,5.33
2022-08-27T14:39:54.082Z,5.67
2022-08-27T14:40:58.555Z,5.53
2022-08-27T14:42:04.301Z,5.40
2022-08-27T14:43:07.686Z,6.37
2022-08-27T14:44:09.637Z,6.77